createdAt,value
2017-09-10T00:00:11.462Z,18.53
2017-09-10T00:00:39.471Z,18.53
2017-09-10T00:01:07.547Z,18.47
2017-09-10T00:01:35.700Z,18.49
2017-09-10T00:02:03.485Z,18.45
2017-09-10T00:02:31.453Z,18.41
2017-09-10T00:02:59.587Z,18.36
2017-09-10T00:03:27.608Z,18.34
2017-09-10T00:03:55.746Z,18.34
2017-09-10T00:04:23.911Z,18.44
2017-09-10T00:04:52.051Z,18.35
2017-09-10T00:05:20.000Z,18.27
2017-09-10T00:05:48.148Z,18.34
2017-09-10T00:06:16.296Z,18.29
2017-09-10T00:06:44.456Z,18.31
2017-09-10T00:07:12.656Z,18.31
2017-09-10T00:07:40.803Z,18.29
2017-09-10T00:08:09.019Z,18.31
2017-09-10T00:08:37.100Z,18.2
2017-09-10T00:09:05.078Z,18.23
2017-09-10T00:09:33.003Z,18.24
2017-09-10T00:10:01.109Z,18.29
2017-09-10T00:10:29.232Z,18.13
2017-09-10T00:10:57.296Z,18.21
2017-09-10T00:11:25.280Z,18.19
2017-09-10T00:11:53.465Z,18.17
2017-09-10T00:12:21.584Z,18.13
2017-09-10T00:12:49.526Z,18.14
2017-09-10T00:13:17.844Z,18.11
2017-09-10T00:13:45.912Z,18.1
2017-09-10T00:14:14.078Z,18.17
2017-09-10T00:14:42.148Z,18.1
2017-09-10T00:15:10.176Z,18.1
2017-09-10T00:15:38.321Z,18.11
2017-09-10T00:16:06.169Z,18.16
2017-09-10T00:16:34.321Z,18.13
2017-09-10T00:17:02.487Z,18.11
2017-09-10T00:17:30.588Z,18.16
2017-09-10T00:17:58.674Z,18.1
2017-09-10T00:18:26.749Z,18.13
2017-09-10T00:18:54.671Z,18.16
2017-09-10T00:19:22.496Z,18.08
2017-09-10T00:19:50.546Z,18.2
2017-09-10T00:20:18.635Z,18.1
2017-09-10T00:20:46.713Z,18.08
2017-09-10T00:21:14.878Z,18.19
2017-09-10T00:21:43.047Z,18.11
2017-09-10T00:22:11.202Z,18.11
2017-09-10T00:22:39.257Z,18.03
2017-09-10T00:23:07.438Z,18.05
2017-09-10T00:23:35.580Z,18.01
2017-09-10T00:24:03.623Z,17.96
2017-09-10T00:24:31.659Z,17.99
2017-09-10T00:24:59.508Z,17.98
2017-09-10T00:25:27.634Z,17.92
2017-09-10T00:25:55.472Z,17.92
2017-09-10T00:26:23.407Z,17.86
2017-09-10T00:26:51.420Z,17.94
2017-09-10T00:27:19.395Z,17.96
2017-09-10T00:27:47.425Z,17.95
2017-09-10T00:28:15.679Z,17.92
2017-09-10T00:28:43.735Z,17.99
2017-09-10T00:29:11.767Z,18.02
2017-09-10T00:29:39.930Z,18.02
2017-09-10T00:30:07.944Z,18.08
2017-09-10T00:30:35.869Z,17.98
2017-09-10T00:31:04.005Z,17.96
2017-09-10T00:31:32.212Z,17.96
2017-09-10T00:32:00.263Z,18.06
2017-09-10T00:32:28.445Z,18.03
2017-09-10T00:32:56.583Z,18.05
2017-09-10T00:33:24.704Z,18.02
2017-09-10T00:33:52.845Z,18.1
2017-09-10T00:34:21.014Z,17.95
2017-09-10T00:34:49.187Z,17.99
2017-09-10T00:35:17.048Z,18.06
2017-09-10T00:35:44.955Z,18.06
2017-09-10T00:36:13.004Z,18.08
2017-09-10T00:36:41.150Z,18.05
2017-09-10T00:37:09.187Z,18.02
2017-09-10T00:37:37.102Z,18.05
2017-09-10T00:38:05.241Z,17.99
2017-09-10T00:38:33.487Z,17.99
2017-09-10T00:39:01.682Z,17.95
2017-09-10T00:39:29.814Z,18.01
2017-09-10T00:39:57.877Z,17.98
2017-09-10T00:40:26.036Z,18.02
2017-09-10T00:40:53.977Z,18.03
2017-09-10T00:41:22.112Z,18.03
2017-09-10T00:41:50.153Z,17.87
2017-09-10T00:42:18.198Z,17.92
2017-09-10T00:42:46.368Z,17.9
2017-09-10T00:43:14.411Z,17.83
2017-09-10T00:43:42.660Z,17.8
2017-09-10T00:44:10.840Z,17.83
2017-09-10T00:44:38.997Z,17.86
2017-09-10T00:45:07.030Z,17.79
2017-09-10T00:45:35.211Z,17.8
2017-09-10T00:46:03.172Z,17.79
2017-09-10T00:46:31.224Z,17.76
2017-09-10T00:46:59.361Z,17.65
2017-09-10T00:47:27.481Z,17.6
2017-09-10T00:47:55.638Z,17.66
2017-09-10T00:48:23.774Z,17.65
2017-09-10T00:48:51.713Z,17.71
2017-09-10T00:49:19.747Z,17.69
2017-09-10T00:49:47.793Z,17.65
2017-09-10T00:50:15.828Z,17.65
2017-09-10T00:50:43.764Z,17.65
2017-09-10T00:51:11.929Z,17.55
2017-09-10T00:51:39.973Z,17.47
2017-09-10T00:52:08.059Z,17.54
2017-09-10T00:52:36.228Z,17.54
2017-09-10T00:53:04.427Z,17.6
2017-09-10T00:53:32.659Z,17.6
2017-09-10T00:54:00.682Z,17.63
2017-09-10T00:54:28.821Z,17.63
2017-09-10T00:54:56.745Z,17.62
2017-09-10T00:55:24.778Z,17.62
2017-09-10T00:55:52.957Z,17.58
2017-09-10T00:56:20.997Z,17.54
2017-09-10T00:56:48.979Z,17.55
2017-09-10T00:57:16.997Z,17.55
2017-09-10T00:57:45.140Z,17.49
2017-09-10T00:58:13.294Z,17.52
2017-09-10T00:58:41.466Z,17.54
2017-09-10T00:59:09.630Z,17.52
2017-09-10T00:59:37.678Z,17.52
2017-09-10T01:00:05.721Z,17.55
2017-09-10T01:00:33.882Z,17.55
2017-09-10T01:01:01.958Z,17.46
2017-09-10T01:01:30.027Z,17.52
2017-09-10T01:01:58.164Z,17.49
2017-09-10T01:02:26.206Z,17.5
2017-09-10T01:02:54.241Z,17.52
2017-09-10T01:03:22.338Z,17.58
2017-09-10T01:03:50.495Z,17.49
2017-09-10T01:04:18.702Z,17.46
2017-09-10T01:04:46.839Z,17.54
2017-09-10T01:05:14.943Z,17.54
2017-09-10T01:05:42.871Z,17.5
2017-09-10T01:06:11.031Z,17.52
2017-09-10T01:06:39.103Z,17.54
2017-09-10T01:07:07.148Z,17.57
2017-09-10T01:07:35.024Z,17.54
2017-09-10T01:08:03.053Z,17.49
2017-09-10T01:08:31.159Z,17.49
2017-09-10T01:08:59.162Z,17.47
2017-09-10T01:09:27.228Z,17.38
2017-09-10T01:09:55.338Z,17.42
2017-09-10T01:10:23.193Z,17.46
2017-09-10T01:10:51.137Z,17.38
2017-09-10T01:11:19.206Z,17.39
2017-09-10T01:11:47.347Z,17.4
2017-09-10T01:12:15.457Z,17.39
2017-09-10T01:12:43.630Z,17.38
2017-09-10T01:13:11.781Z,17.46
2017-09-10T01:13:39.850Z,17.39
2017-09-10T01:14:07.985Z,17.36
2017-09-10T01:14:35.955Z,17.35
2017-09-10T01:15:04.024Z,17.42
2017-09-10T01:15:32.088Z,17.32
2017-09-10T01:16:00.233Z,17.3
2017-09-10T01:16:28.407Z,17.32
2017-09-10T01:16:56.548Z,17.32
2017-09-10T01:17:24.636Z,17.35
2017-09-10T01:17:52.703Z,17.3
2017-09-10T01:18:20.758Z,17.32
2017-09-10T01:18:48.969Z,17.31
2017-09-10T01:19:17.064Z,17.22
2017-09-10T01:19:45.211Z,17.32
2017-09-10T01:20:13.383Z,17.36
2017-09-10T01:20:41.457Z,17.35
2017-09-10T01:21:09.411Z,17.31
2017-09-10T01:21:37.521Z,17.35
2017-09-10T01:22:05.593Z,17.49
2017-09-10T01:22:33.586Z,17.38
2017-09-10T01:23:01.641Z,17.38
2017-09-10T01:23:29.474Z,17.45
2017-09-10T01:23:57.757Z,17.39
2017-09-10T01:24:25.920Z,17.47
2017-09-10T01:24:54.114Z,17.45
2017-09-10T01:25:22.256Z,17.46
2017-09-10T01:25:50.220Z,17.43
2017-09-10T01:26:18.267Z,17.5
2017-09-10T01:26:46.448Z,17.49
2017-09-10T01:27:14.652Z,17.49
2017-09-10T01:27:42.679Z,17.46
2017-09-10T01:28:10.793Z,17.46
2017-09-10T01:28:38.608Z,17.52
2017-09-10T01:29:06.870Z,17.55
2017-09-10T01:29:34.921Z,17.54
2017-09-10T01:30:02.950Z,17.6
2017-09-10T01:30:30.928Z,17.5
2017-09-10T01:30:58.957Z,17.52
2017-09-10T01:31:26.975Z,17.57
2017-09-10T01:31:54.972Z,17.54
2017-09-10T01:32:23.156Z,17.58
2017-09-10T01:32:51.223Z,17.45
2017-09-10T01:33:19.227Z,17.43
2017-09-10T01:33:47.367Z,17.4
2017-09-10T01:34:15.286Z,17.39
2017-09-10T01:34:43.473Z,17.38
2017-09-10T01:35:11.488Z,17.42
2017-09-10T01:35:39.513Z,17.45
2017-09-10T01:36:07.471Z,17.43
2017-09-10T01:36:35.581Z,17.49
2017-09-10T01:37:03.704Z,17.39
2017-09-10T01:37:31.548Z,17.31
2017-09-10T01:37:59.729Z,17.36
2017-09-10T01:38:27.626Z,17.38
2017-09-10T01:38:55.692Z,17.32
2017-09-10T01:39:23.836Z,17.24
2017-09-10T01:39:52.003Z,17.3
2017-09-10T01:40:20.159Z,17.32
2017-09-10T01:40:48.091Z,17.2
2017-09-10T01:41:16.241Z,17.36
2017-09-10T01:41:44.295Z,17.28
2017-09-10T01:42:12.286Z,17.36
2017-09-10T01:42:40.476Z,17.36
2017-09-10T01:43:08.648Z,17.35
2017-09-10T01:43:36.810Z,17.25
2017-09-10T01:44:04.839Z,17.38
2017-09-10T01:44:32.982Z,17.36
2017-09-10T01:45:01.042Z,17.3
2017-09-10T01:45:29.128Z,17.32
2017-09-10T01:45:57.091Z,17.35
2017-09-10T01:46:25.299Z,17.32
2017-09-10T01:46:53.342Z,17.38
2017-09-10T01:47:21.463Z,17.39
2017-09-10T01:47:49.645Z,17.28
2017-09-10T01:48:17.767Z,17.32
2017-09-10T01:48:45.857Z,17.35
2017-09-10T01:49:14.188Z,17.32
2017-09-10T01:49:42.249Z,17.43
2017-09-10T01:50:10.301Z,17.4
2017-09-10T01:50:38.301Z,17.4
2017-09-10T01:51:06.226Z,17.36
2017-09-10T01:51:34.272Z,17.46
2017-09-10T01:52:02.307Z,17.45
2017-09-10T01:52:30.374Z,17.39
2017-09-10T01:52:58.553Z,17.45
2017-09-10T01:53:26.580Z,17.47
2017-09-10T01:53:54.610Z,17.42
2017-09-10T01:54:22.857Z,17.38
2017-09-10T01:54:51.023Z,17.46
2017-09-10T01:55:19.146Z,17.42
2017-09-10T01:55:47.261Z,17.42
2017-09-10T01:56:15.383Z,17.39
2017-09-10T01:56:43.520Z,17.43
2017-09-10T01:57:11.574Z,17.35
2017-09-10T01:57:39.607Z,17.39
2017-09-10T01:58:07.673Z,17.4
2017-09-10T01:58:35.821Z,17.42
2017-09-10T01:59:03.849Z,17.43
2017-09-10T01:59:32.081Z,17.45
2017-09-10T02:00:00.204Z,17.43
2017-09-10T02:00:28.398Z,17.43
2017-09-10T02:00:56.328Z,17.46
2017-09-10T02:01:24.520Z,17.4
2017-09-10T02:01:52.646Z,17.42
2017-09-10T02:02:20.819Z,17.42
2017-09-10T02:02:48.957Z,17.38
2017-09-10T02:03:17.140Z,17.38
2017-09-10T02:03:45.280Z,17.32
2017-09-10T02:04:13.350Z,17.39
2017-09-10T02:04:41.590Z,17.36
2017-09-10T02:05:09.730Z,17.36
2017-09-10T02:05:37.929Z,17.22
2017-09-10T02:06:05.986Z,17.24
2017-09-10T02:06:34.130Z,17.22
2017-09-10T02:07:02.253Z,17.1
2017-09-10T02:07:30.429Z,17.1
2017-09-10T02:07:58.536Z,17.15
2017-09-10T02:08:26.459Z,17.17
2017-09-10T02:08:54.475Z,17.06
2017-09-10T02:09:22.745Z,17.07
2017-09-10T02:09:50.813Z,17.06
2017-09-10T02:10:18.984Z,17.05
2017-09-10T02:10:46.876Z,16.95
2017-09-10T02:11:14.937Z,17
2017-09-10T02:11:43.099Z,16.95
2017-09-10T02:12:11.032Z,16.9
2017-09-10T02:12:39.129Z,16.97
2017-09-10T02:13:07.076Z,16.91
2017-09-10T02:13:35.215Z,16.9
2017-09-10T02:14:03.348Z,16.94
2017-09-10T02:14:31.298Z,16.97
2017-09-10T02:14:59.435Z,16.92
2017-09-10T02:15:27.461Z,16.92
2017-09-10T02:15:55.612Z,16.97
2017-09-10T02:16:23.768Z,16.92
2017-09-10T02:16:51.718Z,16.91
2017-09-10T02:17:19.798Z,16.91
2017-09-10T02:17:47.980Z,16.91
2017-09-10T02:18:16.015Z,16.92
2017-09-10T02:18:43.953Z,17.03
2017-09-10T02:19:11.991Z,16.99
2017-09-10T02:19:40.236Z,17
2017-09-10T02:20:08.400Z,17.03
2017-09-10T02:20:36.547Z,17.05
2017-09-10T02:21:04.575Z,17
2017-09-10T02:21:32.596Z,17.03
2017-09-10T02:22:00.556Z,17.05
2017-09-10T02:22:28.483Z,16.9
2017-09-10T02:22:56.628Z,17.03
2017-09-10T02:23:24.801Z,16.91
2017-09-10T02:23:52.856Z,16.9
2017-09-10T02:24:20.924Z,16.91
2017-09-10T02:24:49.121Z,17.03
2017-09-10T02:25:17.045Z,17.06
2017-09-10T02:25:45.162Z,16.91
2017-09-10T02:26:13.249Z,17.05
2017-09-10T02:26:41.081Z,17.02
2017-09-10T02:27:09.228Z,17
2017-09-10T02:27:37.256Z,16.94
2017-09-10T02:28:05.319Z,16.97
2017-09-10T02:28:33.359Z,17
2017-09-10T02:29:01.553Z,16.92
2017-09-10T02:29:29.598Z,17.09
2017-09-10T02:29:57.777Z,17.03
2017-09-10T02:30:25.936Z,17.03
2017-09-10T02:30:54.040Z,17.1
2017-09-10T02:31:22.087Z,16.94
2017-09-10T02:31:50.222Z,16.99
2017-09-10T02:32:18.358Z,16.97
2017-09-10T02:32:46.486Z,16.91
2017-09-10T02:33:14.483Z,17.03
2017-09-10T02:33:42.600Z,17
2017-09-10T02:34:10.620Z,17.06
2017-09-10T02:34:38.908Z,17.05
2017-09-10T02:35:07.077Z,17.09
2017-09-10T02:35:35.022Z,17
2017-09-10T02:36:03.173Z,17.06
2017-09-10T02:36:31.319Z,16.95
2017-09-10T02:36:59.471Z,16.92
2017-09-10T02:37:27.542Z,16.94
2017-09-10T02:37:55.580Z,16.91
2017-09-10T02:38:23.495Z,17.07
2017-09-10T02:38:51.664Z,17.05
2017-09-10T02:39:19.698Z,16.9
2017-09-10T02:39:47.861Z,17.05
2017-09-10T02:40:16.015Z,17.02
2017-09-10T02:40:44.129Z,17.03
2017-09-10T02:41:12.150Z,17
2017-09-10T02:41:39.974Z,17.05
2017-09-10T02:42:08.106Z,17.06
2017-09-10T02:42:36.049Z,17.12
2017-09-10T02:43:04.013Z,17.05
2017-09-10T02:43:31.965Z,17.05
2017-09-10T02:44:00.011Z,17.09
2017-09-10T02:44:28.038Z,17
2017-09-10T02:44:56.275Z,17.1
2017-09-10T02:45:24.225Z,17.05
2017-09-10T02:45:52.334Z,17.03
2017-09-10T02:46:20.375Z,17.06
2017-09-10T02:46:48.508Z,17.02
2017-09-10T02:47:16.662Z,17.06
2017-09-10T02:47:44.804Z,17.07
2017-09-10T02:48:12.709Z,17.07
2017-09-10T02:48:40.562Z,17.05
2017-09-10T02:49:08.721Z,17.06
2017-09-10T02:49:36.805Z,17.09
2017-09-10T02:50:05.042Z,17.1
2017-09-10T02:50:33.121Z,17.06
2017-09-10T02:51:01.243Z,17.07
2017-09-10T02:51:29.307Z,17.09
2017-09-10T02:51:57.324Z,17.07
2017-09-10T02:52:25.390Z,17.02
2017-09-10T02:52:53.524Z,17.07
2017-09-10T02:53:21.712Z,17.02
2017-09-10T02:53:49.735Z,17
2017-09-10T02:54:17.937Z,16.91
2017-09-10T02:54:46.046Z,16.92
2017-09-10T02:55:14.320Z,16.9
2017-09-10T02:55:42.377Z,16.82
2017-09-10T02:56:10.499Z,16.85
2017-09-10T02:56:38.470Z,16.9
2017-09-10T02:57:06.646Z,16.8
2017-09-10T02:57:34.798Z,16.9
2017-09-10T02:58:02.935Z,16.82
2017-09-10T02:58:30.942Z,16.92
2017-09-10T02:58:58.859Z,16.9
2017-09-10T02:59:27.003Z,16.94
2017-09-10T02:59:55.224Z,16.94
2017-09-10T03:00:23.367Z,16.91
2017-09-10T03:00:51.419Z,16.94
2017-09-10T03:01:19.479Z,16.95
2017-09-10T03:01:47.616Z,16.91
2017-09-10T03:02:15.596Z,16.94
2017-09-10T03:02:43.643Z,16.95
2017-09-10T03:03:11.681Z,17.05
2017-09-10T03:03:39.724Z,17.02
2017-09-10T03:04:07.845Z,17.02
2017-09-10T03:04:36.597Z,17
2017-09-10T03:05:04.863Z,17.05
2017-09-10T03:05:32.859Z,17.07
2017-09-10T03:06:00.894Z,17.06
2017-09-10T03:06:28.952Z,17.09
2017-09-10T03:06:57.097Z,17.06
2017-09-10T03:07:25.171Z,17.09
2017-09-10T03:07:53.230Z,17.09
2017-09-10T03:08:21.294Z,17.02
2017-09-10T03:08:49.235Z,17.05
2017-09-10T03:09:17.282Z,17
2017-09-10T03:09:45.311Z,17.07
2017-09-10T03:10:13.492Z,16.97
2017-09-10T03:10:41.555Z,17.05
2017-09-10T03:11:09.643Z,16.97
2017-09-10T03:11:37.675Z,16.92
2017-09-10T03:12:05.735Z,16.9
2017-09-10T03:12:33.583Z,16.95
2017-09-10T03:13:01.698Z,17
2017-09-10T03:13:29.637Z,16.99
2017-09-10T03:13:57.693Z,16.92
2017-09-10T03:14:25.757Z,16.94
2017-09-10T03:14:53.908Z,16.97
2017-09-10T03:15:22.112Z,16.9
2017-09-10T03:15:50.282Z,16.97
2017-09-10T03:16:18.354Z,16.97
2017-09-10T03:16:46.400Z,16.99
2017-09-10T03:17:14.555Z,16.97
2017-09-10T03:17:42.516Z,16.95
2017-09-10T03:18:10.566Z,16.94
2017-09-10T03:20:18.189Z,16.88
2017-09-10T03:20:46.481Z,16.81
2017-09-10T03:21:14.495Z,16.88
2017-09-10T03:21:42.592Z,16.87
2017-09-10T03:22:10.805Z,16.77
2017-09-10T03:22:38.941Z,16.81
2017-09-10T03:23:07.150Z,16.73
2017-09-10T03:23:35.377Z,16.85
2017-09-10T03:24:03.493Z,16.8
2017-09-10T03:24:31.617Z,16.76
2017-09-10T03:24:59.732Z,16.8
2017-09-10T03:25:27.957Z,16.7
2017-09-10T03:25:55.927Z,16.72
2017-09-10T03:26:23.765Z,16.7
2017-09-10T03:26:52.029Z,16.66
2017-09-10T03:27:20.290Z,16.74
2017-09-10T03:27:48.571Z,16.67
2017-09-10T03:28:16.766Z,16.63
2017-09-10T03:28:44.910Z,16.67
2017-09-10T03:29:13.124Z,16.69
2017-09-10T03:29:41.242Z,16.67
2017-09-10T03:30:09.383Z,16.7
2017-09-10T03:30:37.687Z,16.67
2017-09-10T03:31:05.915Z,16.66
2017-09-10T03:31:34.154Z,16.73
2017-09-10T03:32:02.300Z,16.72
2017-09-10T03:32:30.544Z,16.7
2017-09-10T03:32:58.667Z,16.69
2017-09-10T03:33:26.728Z,16.74
2017-09-10T03:33:54.864Z,16.72
2017-09-10T03:34:22.812Z,16.72
2017-09-10T03:34:50.962Z,16.72
2017-09-10T03:35:18.980Z,16.63
2017-09-10T03:35:47.228Z,16.72
2017-09-10T03:36:15.479Z,16.73
2017-09-10T03:36:43.616Z,16.67
2017-09-10T03:37:11.907Z,16.74
2017-09-10T03:37:40.064Z,16.7
2017-09-10T03:38:08.303Z,16.8
2017-09-10T03:38:36.445Z,16.7
2017-09-10T03:39:04.709Z,16.73
2017-09-10T03:39:32.836Z,16.73
2017-09-10T03:40:01.059Z,16.69
2017-09-10T03:40:29.346Z,16.65
2017-09-10T03:40:57.620Z,16.69
2017-09-10T03:41:25.851Z,16.7
2017-09-10T03:41:53.873Z,16.69
2017-09-10T03:42:21.848Z,16.66
2017-09-10T03:42:49.974Z,16.72
2017-09-10T03:43:18.120Z,16.69
2017-09-10T03:43:46.255Z,16.59
2017-09-10T03:44:14.385Z,16.63
2017-09-10T03:44:42.502Z,16.62
2017-09-10T03:45:10.723Z,16.65
2017-09-10T03:45:38.824Z,16.67
2017-09-10T03:46:07.075Z,16.59
2017-09-10T03:46:35.166Z,16.62
2017-09-10T03:47:03.374Z,16.65
2017-09-10T03:47:31.625Z,16.65
2017-09-10T03:47:59.844Z,16.62
2017-09-10T03:48:27.960Z,16.55
2017-09-10T03:48:56.188Z,16.51
2017-09-10T03:49:24.161Z,16.55
2017-09-10T03:49:52.411Z,16.51
2017-09-10T03:50:20.534Z,16.49
2017-09-10T03:50:48.861Z,16.44
2017-09-10T03:51:17.083Z,16.45
2017-09-10T03:51:45.213Z,16.45
2017-09-10T03:52:13.350Z,16.39
2017-09-10T03:52:41.477Z,16.3
2017-09-10T03:53:09.715Z,16.34
2017-09-10T03:53:37.870Z,16.33
2017-09-10T03:54:06.122Z,16.34
2017-09-10T03:54:34.271Z,16.29
2017-09-10T03:55:02.458Z,16.17
2017-09-10T03:55:30.619Z,16.18
2017-09-10T03:55:58.959Z,16.17
2017-09-10T03:56:27.208Z,16.14
2017-09-10T03:56:55.500Z,16.14
2017-09-10T03:57:23.614Z,16.13
2017-09-10T03:57:51.872Z,16.07
2017-09-10T03:58:20.093Z,16.13
2017-09-10T03:58:48.134Z,16.06
2017-09-10T03:59:16.295Z,15.99
2017-09-10T03:59:44.325Z,16.11
2017-09-10T04:00:12.579Z,16.13
2017-09-10T04:00:40.839Z,15.95
2017-09-10T04:01:08.926Z,16.06
2017-09-10T04:01:37.076Z,15.96
2017-09-10T04:02:05.232Z,16.04
2017-09-10T04:02:33.352Z,15.91
2017-09-10T04:03:01.468Z,15.92
2017-09-10T04:03:29.693Z,15.93
2017-09-10T04:03:57.907Z,15.81
2017-09-10T04:04:25.985Z,15.92
2017-09-10T04:04:54.094Z,15.86
2017-09-10T04:05:22.327Z,15.91
2017-09-10T04:05:50.451Z,15.88
2017-09-10T04:06:18.788Z,15.93
2017-09-10T04:06:46.789Z,15.93
2017-09-10T04:07:14.943Z,15.98
2017-09-10T04:07:42.987Z,16.04
2017-09-10T04:08:11.067Z,16.04
2017-09-10T04:08:39.142Z,16.1
2017-09-10T04:09:07.090Z,16.07
2017-09-10T04:09:34.900Z,16
2017-09-10T04:10:03.132Z,16.1
2017-09-10T04:10:31.261Z,16.17
2017-09-10T04:10:59.485Z,16.06
2017-09-10T04:11:27.742Z,16.17
2017-09-10T04:11:56.006Z,16.17
2017-09-10T04:12:24.175Z,16.08
2017-09-10T04:12:52.181Z,16.04
2017-09-10T04:13:20.454Z,16.1
2017-09-10T04:13:48.482Z,16.06
2017-09-10T04:14:16.697Z,16.16
2017-09-10T04:14:44.916Z,15.99
2017-09-10T04:15:12.988Z,16.11
2017-09-10T04:15:41.284Z,16.06
2017-09-10T04:16:09.544Z,16.02
2017-09-10T04:16:37.672Z,16.1
2017-09-10T04:17:05.842Z,16.06
2017-09-10T04:17:34.090Z,16.1
2017-09-10T04:18:02.256Z,16.06
2017-09-10T04:18:30.402Z,15.95
2017-09-10T04:18:58.663Z,16.08
2017-09-10T04:19:26.919Z,16.07
2017-09-10T04:19:54.861Z,15.98
2017-09-10T04:20:23.009Z,16.02
2017-09-10T04:20:51.184Z,16.02
2017-09-10T04:21:19.389Z,15.91
2017-09-10T04:21:47.627Z,16.04
2017-09-10T04:22:15.753Z,15.99
2017-09-10T04:22:43.971Z,15.99
2017-09-10T04:23:12.098Z,16.04
2017-09-10T04:23:40.297Z,16.08
2017-09-10T04:24:08.535Z,16.02
2017-09-10T04:24:36.714Z,15.99
2017-09-10T04:25:04.987Z,16.07
2017-09-10T04:25:33.152Z,15.93
2017-09-10T04:26:01.347Z,16.04
2017-09-10T04:26:29.718Z,16.04
2017-09-10T04:26:57.837Z,16.11
2017-09-10T04:27:26.091Z,16.1
2017-09-10T04:27:54.328Z,16.1
2017-09-10T04:28:22.556Z,16.08
2017-09-10T04:28:50.675Z,16.11
2017-09-10T04:29:18.705Z,16.07
2017-09-10T04:29:46.818Z,16.13
2017-09-10T04:30:15.032Z,16.1
2017-09-10T04:30:43.245Z,16.04
2017-09-10T04:31:11.405Z,16.1
2017-09-10T04:31:39.759Z,16.11
2017-09-10T04:32:07.881Z,16.11
2017-09-10T04:32:36.072Z,16.11
2017-09-10T04:33:04.298Z,16.14
2017-09-10T04:33:32.444Z,16.13
2017-09-10T04:34:00.361Z,16.11
2017-09-10T04:34:28.444Z,16.16
2017-09-10T04:34:56.605Z,16.17
2017-09-10T04:35:24.770Z,16.08
2017-09-10T04:35:53.016Z,16.14
2017-09-10T04:36:21.164Z,16.11
2017-09-10T04:36:49.488Z,16.04
2017-09-10T04:37:17.770Z,16.18
2017-09-10T04:37:45.873Z,16.07
2017-09-10T04:38:14.103Z,16.17
2017-09-10T04:38:42.252Z,16.11
2017-09-10T04:39:10.348Z,16.07
2017-09-10T04:39:38.480Z,16.02
2017-09-10T04:40:06.659Z,16.08
2017-09-10T04:40:34.791Z,16.04
2017-09-10T04:41:03.029Z,16.11
2017-09-10T04:41:31.306Z,16.04
2017-09-10T04:41:59.518Z,16.08
2017-09-10T04:42:27.756Z,15.99
2017-09-10T04:42:55.868Z,15.99
2017-09-10T04:43:24.011Z,16
2017-09-10T04:43:52.206Z,16
2017-09-10T04:44:20.446Z,16.02
2017-09-10T04:44:48.564Z,16.04
2017-09-10T04:45:16.802Z,15.95
2017-09-10T04:45:44.995Z,15.93
2017-09-10T04:46:13.212Z,15.93
2017-09-10T04:46:41.492Z,15.92
2017-09-10T04:47:09.520Z,15.89
2017-09-10T04:47:37.768Z,15.91
2017-09-10T04:48:05.885Z,15.91
2017-09-10T04:48:34.086Z,15.83
2017-09-10T04:49:02.340Z,15.84
2017-09-10T04:49:30.455Z,15.78
2017-09-10T04:49:58.597Z,15.83
2017-09-10T04:50:26.713Z,15.86
2017-09-10T04:50:54.812Z,15.89
2017-09-10T04:51:23.027Z,15.86
2017-09-10T04:51:51.274Z,15.77
2017-09-10T04:52:19.466Z,15.75
2017-09-10T04:52:47.609Z,15.88
2017-09-10T04:53:15.735Z,15.77
2017-09-10T04:53:43.998Z,15.75
2017-09-10T04:54:12.233Z,15.75
2017-09-10T04:54:40.471Z,15.81
2017-09-10T04:55:08.651Z,15.77
2017-09-10T04:55:36.902Z,15.78
2017-09-10T04:56:05.027Z,15.81
2017-09-10T04:56:33.153Z,15.78
2017-09-10T04:57:01.244Z,15.77
2017-09-10T04:57:29.471Z,15.77
2017-09-10T04:57:57.597Z,15.78
2017-09-10T04:58:25.830Z,15.81
2017-09-10T04:58:54.004Z,15.88
2017-09-10T04:59:22.116Z,15.86
2017-09-10T04:59:50.261Z,15.88
2017-09-10T05:00:18.476Z,15.86
2017-09-10T05:00:46.741Z,15.83
2017-09-10T05:01:14.772Z,15.84
2017-09-10T05:01:42.791Z,15.84
2017-09-10T05:02:11.173Z,15.91
2017-09-10T05:02:39.426Z,15.92
2017-09-10T05:03:07.700Z,15.92
2017-09-10T05:03:35.785Z,15.93
2017-09-10T05:04:04.033Z,15.98
2017-09-10T05:04:32.149Z,15.93
2017-09-10T05:05:00.374Z,15.95
2017-09-10T05:05:28.623Z,15.93
2017-09-10T05:05:56.783Z,15.93
2017-09-10T05:06:24.959Z,15.93
2017-09-10T05:06:53.282Z,15.96
2017-09-10T05:07:21.560Z,15.91
2017-09-10T05:07:49.777Z,15.95
2017-09-10T05:08:18.005Z,15.98
2017-09-10T05:08:46.210Z,15.96
2017-09-10T05:09:14.339Z,15.93
2017-09-10T05:09:42.572Z,15.89
2017-09-10T05:10:10.810Z,15.95
2017-09-10T05:10:38.961Z,15.93
2017-09-10T05:11:07.000Z,15.93
2017-09-10T05:11:35.100Z,15.88
2017-09-10T05:12:03.486Z,15.86
2017-09-10T05:12:31.559Z,15.89
2017-09-10T05:12:59.735Z,15.95
2017-09-10T05:13:27.952Z,15.92
2017-09-10T05:13:56.080Z,15.92
2017-09-10T05:14:24.201Z,15.93
2017-09-10T05:14:52.244Z,15.95
2017-09-10T05:15:20.379Z,15.93
2017-09-10T05:15:48.620Z,15.93
2017-09-10T05:16:16.841Z,15.91
2017-09-10T05:16:45.105Z,15.95
2017-09-10T05:17:13.237Z,15.89
2017-09-10T05:17:41.264Z,15.93
2017-09-10T05:18:09.396Z,15.81
2017-09-10T05:18:37.628Z,15.88
2017-09-10T05:19:05.866Z,15.84
2017-09-10T05:19:33.939Z,15.86
2017-09-10T05:20:02.123Z,15.88
2017-09-10T05:20:30.374Z,15.84
2017-09-10T05:20:58.494Z,15.95
2017-09-10T05:21:26.525Z,15.88
2017-09-10T05:21:54.659Z,15.91
2017-09-10T05:22:22.997Z,15.89
2017-09-10T05:22:51.228Z,15.89
2017-09-10T05:23:19.372Z,15.86
2017-09-10T05:23:47.414Z,15.86
2017-09-10T05:24:15.620Z,15.86
2017-09-10T05:24:43.736Z,15.83
2017-09-10T05:25:11.975Z,15.83
2017-09-10T05:25:40.086Z,15.84
2017-09-10T05:26:08.344Z,15.83
2017-09-10T05:26:36.564Z,15.89
2017-09-10T05:27:04.743Z,15.88
2017-09-10T05:27:33.085Z,15.91
2017-09-10T05:28:01.277Z,15.86
2017-09-10T05:28:29.428Z,15.92
2017-09-10T05:28:57.546Z,15.95
2017-09-10T05:29:25.750Z,15.92
2017-09-10T05:29:53.867Z,15.99
2017-09-10T05:30:21.914Z,15.92
2017-09-10T05:30:50.031Z,15.89
2017-09-10T05:31:18.343Z,15.89
2017-09-10T05:31:46.371Z,15.89
2017-09-10T05:32:14.492Z,15.88
2017-09-10T05:32:42.550Z,15.84
2017-09-10T05:33:10.572Z,15.91
2017-09-10T05:33:38.672Z,15.86
2017-09-10T05:34:06.967Z,15.88
2017-09-10T05:34:34.987Z,15.89
2017-09-10T05:35:03.135Z,15.84
2017-09-10T05:35:31.282Z,15.88
2017-09-10T05:35:59.422Z,15.86
2017-09-10T05:36:27.517Z,15.89
2017-09-10T05:36:55.727Z,15.86
2017-09-10T05:37:24.018Z,15.89
2017-09-10T05:37:52.047Z,15.89
2017-09-10T05:38:20.280Z,15.88
2017-09-10T05:38:48.435Z,15.92
2017-09-10T05:39:16.630Z,15.86
2017-09-10T05:39:44.785Z,15.89
2017-09-10T05:40:12.983Z,15.86
2017-09-10T05:40:41.016Z,15.83
2017-09-10T05:41:09.039Z,15.88
2017-09-10T05:41:37.216Z,15.89
2017-09-10T05:42:05.463Z,15.84
2017-09-10T05:42:33.608Z,15.77
2017-09-10T05:43:01.844Z,15.83
2017-09-10T05:43:30.097Z,15.89
2017-09-10T05:43:58.321Z,15.77
2017-09-10T05:44:26.499Z,15.78
2017-09-10T05:44:54.813Z,15.81
2017-09-10T05:45:23.049Z,15.74
2017-09-10T05:45:51.101Z,15.84
2017-09-10T05:46:19.238Z,15.65
2017-09-10T05:46:47.393Z,15.65
2017-09-10T05:47:15.545Z,15.73
2017-09-10T05:47:43.905Z,15.62
2017-09-10T05:48:12.136Z,15.65
2017-09-10T05:48:40.377Z,15.73
2017-09-10T05:49:08.591Z,15.7
2017-09-10T05:49:36.621Z,15.59
2017-09-10T05:50:04.659Z,15.67
2017-09-10T05:50:32.889Z,15.7
2017-09-10T05:51:01.094Z,15.65
2017-09-10T05:51:29.211Z,15.63
2017-09-10T05:51:57.258Z,15.71
2017-09-10T05:52:25.282Z,15.65
2017-09-10T05:52:53.509Z,15.68
2017-09-10T05:53:21.797Z,15.67
2017-09-10T05:53:50.047Z,15.68
2017-09-10T05:54:18.179Z,15.67
2017-09-10T05:54:46.432Z,15.77
2017-09-10T05:55:14.666Z,15.73
2017-09-10T05:55:42.578Z,15.74
2017-09-10T05:56:10.816Z,15.74
2017-09-10T05:56:38.841Z,15.8
2017-09-10T05:57:07.033Z,15.8
2017-09-10T05:57:35.275Z,15.75
2017-09-10T05:58:03.378Z,15.74
2017-09-10T05:58:31.429Z,15.75
2017-09-10T05:58:59.627Z,15.74
2017-09-10T05:59:27.867Z,15.73
2017-09-10T05:59:56.008Z,15.77
2017-09-10T06:00:24.236Z,15.67
2017-09-10T06:00:52.510Z,15.75
2017-09-10T06:01:20.681Z,15.73
2017-09-10T06:01:48.945Z,15.81
2017-09-10T06:02:17.034Z,15.75
2017-09-10T06:02:45.349Z,15.81
2017-09-10T06:03:13.611Z,15.73
2017-09-10T06:03:41.710Z,15.75
2017-09-10T06:04:09.876Z,15.73
2017-09-10T06:04:38.110Z,15.71
2017-09-10T06:05:06.371Z,15.75
2017-09-10T06:05:34.470Z,15.78